Portada
METAR-TAF:

METAR-TAF

Aeroports :

Macau, Xina

latitud: 22-10N, longitud: 113-34E, altitud: 114 m

Observació

L'informe es va fer fa 24 minuts, a les 04:30 UTC
Vent 9 kt del Nord
Temperatura 23°C
Humitat 65%
Pressió 1019 hPa
Visibilitat 10 km o més
Escasses núvols a una alçada de 3500 ft

METAR: VMMC 210430Z 01009KT 9999 FEW035 23/16 Q1019 NOSIG

Hora: 12:54 (04:54 UTC)

Pronòstic

L'informe es va fer fa 5 hores i 54 minuts, a les 23:00 UTC
Pronòstic vàlid del 21 a les 00 UTC al 22 a les 06 UTC
Vent 10 kt del Nord
Visibilitat 10 km o més
Escasses núvols a una alçada de 3500 ft

TAF: VMMC 202300Z 2100/2206 01010KT 9999 FEW035

Observacions i pronòstics meteorològics de més de 4000 aeroports (METAR i TAF).

Les estacions disponibles són els punts grocs i vermells al mapa.

Posi el ratolí al punt desitjat per veure el nom de l'estació.

Feu clic per veure les observacions i els pronòstics meteorològics.

Per canviar el mapa: feu clic els botons verds amb una creu de color negre per apropar; al botó verd amb un guió per allunyar la imatge; o en les fletxes verdes per a mapes adjacents.


METAR-TAF: